Morristown, NJ

5:08 PM EDT on August 04, 2015 (GMT -0400)
Morristown Municipal | | Change Station
CLOSE
Current Station
Airport
Location: Morristown,
Elevation: 187 ft
Nearby Weather Stations

Elev 187 ft 40.80 °N, 74.42 °W | Updated 23 minutes ago

Scattered Clouds
Scattered Clouds
90 °F
Feels Like 88 °F
N
10
Wind Variable Wind from West
Gusts 18 mph

Today
High -- | Low -- °F
--% Chance of Precip.
Yesterday
High -- | Low -- °F
Precip. -- in
5:56 AM 8:10 PM
Waning Gibbous, 74% visible
Pressure 29.86 in
Visibility 15.0 miles
Clouds Scattered Clouds 7000 ft
Heat Index 88 °F
Dew Point 55 °F
Humidity 31%
Rainfall 0.03 in
Snow Depth Not available.
UV 4 out of 12
Pollen 7.80 out of 12
Air Quality Not available.
Flu Activity Not available.
METAR KMMU 042045Z 27009G16KT 15SM SCT070 32/13 A2986

More Conditions Fewer Conditions

Pressure 29.86 in
Visibility 15.0 miles
Clouds Scattered Clouds 7000 ft
Heat Index 88 °F
Dew Point 55 °F
Humidity 31%
Rainfall 0.03 in
Snow Depth Not available.
UV 4 out of 12
Pollen 7.80 out of 12
Air Quality Not available.
Flu Activity Not available.
METAR KMMU 042045Z 27009G16KT 15SM SCT070 32/13 A2986

More Conditions Fewer Conditions

10-Day Weather Forecast

×

Almanac

Astronomy

Aug. 04, 2015 Rise Set
Actual Time
Civil Twilight
Nautical Twilight
Astronomical Twilight
Moon
Length of Visible Light
Length of Day
Tomorrow will be .
, % of the Moon is Illuminated

Today's Extremes

State Highs State Lows

Community

WunderPhotos

Upload Photos

1,843,980 photos uploaded!

WunderBlogs® & News

Nearby

Air Quality

  Air Quality AQ Index Pollutant
Not available.

Snow Depth

Station Depth Elevation

Earthquake Activity

City Distance Mag. Time & Date
Minimum magnitude displayed is 2.5.

Coastal Water Temperatures

Place Temperature

Stations

Nearby Weather Stations

Station Location Temp. Windchill Dew Point Humidity Wind Precip. Elev Updated Type